sensor_id;sensor_type;location;lat;lon;timestamp;temperature;humidity
41080;DHT22;26826;50.718;7.114;2023-02-28T00:00:37;0.10;99.90
41080;DHT22;26826;50.718;7.114;2023-02-28T00:10:38;0.10;99.90
41080;DHT22;26826;50.718;7.114;2023-02-28T00:20:39;0.10;99.90
41080;DHT22;26826;50.718;7.114;2023-02-28T00:30:39;-0.20;99.90
41080;DHT22;26826;50.718;7.114;2023-02-28T00:40:40;-0.30;99.90
41080;DHT22;26826;50.718;7.114;2023-02-28T00:50:40;-0.30;99.90
41080;DHT22;26826;50.718;7.114;2023-02-28T01:00:41;-0.40;99.90
41080;DHT22;26826;50.718;7.114;2023-02-28T01:10:42;-0.30;99.90
41080;DHT22;26826;50.718;7.114;2023-02-28T01:20:42;-0.60;99.90
41080;DHT22;26826;50.718;7.114;2023-02-28T01:30:47;-0.50;99.90
41080;DHT22;26826;50.718;7.114;2023-02-28T01:40:48;-0.50;99.90
41080;DHT22;26826;50.718;7.114;2023-02-28T01:50:49;-0.30;99.90
41080;DHT22;26826;50.718;7.114;2023-02-28T02:00:50;-0.40;99.90
41080;DHT22;26826;50.718;7.114;2023-02-28T02:10:57;-0.40;99.90
41080;DHT22;26826;50.718;7.114;2023-02-28T02:21:22;-0.60;99.90
41080;DHT22;26826;50.718;7.114;2023-02-28T02:42:05;-0.90;99.90
41080;DHT22;26826;50.718;7.114;2023-02-28T02:52:14;-1.10;99.90
41080;DHT22;26826;50.718;7.114;2023-02-28T03:02:16;-1.20;99.90
41080;DHT22;26826;50.718;7.114;2023-02-28T03:12:18;-1.20;99.90
41080;DHT22;26826;50.718;7.114;2023-02-28T03:22:34;-1.20;99.90
41080;DHT22;26826;50.718;7.114;2023-02-28T03:43:10;-1.30;99.90
41080;DHT22;26826;50.718;7.114;2023-02-28T04:03:25;-1.40;99.90
41080;DHT22;26826;50.718;7.114;2023-02-28T04:13:25;-1.60;99.90
41080;DHT22;26826;50.718;7.114;2023-02-28T04:23:26;-1.70;99.90
41080;DHT22;26826;50.718;7.114;2023-02-28T04:33:27;-1.80;99.90
41080;DHT22;26826;50.718;7.114;2023-02-28T04:43:28;-1.70;99.90
41080;DHT22;26826;50.718;7.114;2023-02-28T04:53:29;-1.80;99.90
41080;DHT22;26826;50.718;7.114;2023-02-28T05:03:29;-1.90;99.90
41080;DHT22;26826;50.718;7.114;2023-02-28T05:13:30;-2.00;99.90
41080;DHT22;26826;50.718;7.114;2023-02-28T05:23:30;-1.80;99.90
41080;DHT22;26826;50.718;7.114;2023-02-28T05:33:31;-2.00;99.90
41080;DHT22;26826;50.718;7.114;2023-02-28T05:43:32;-1.90;99.90
41080;DHT22;26826;50.718;7.114;2023-02-28T05:53:32;-1.80;99.90
41080;DHT22;26826;50.718;7.114;2023-02-28T06:03:33;-1.80;99.90
41080;DHT22;26826;50.718;7.114;2023-02-28T06:13:33;-1.90;99.90
41080;DHT22;26826;50.718;7.114;2023-02-28T06:23:34;-1.60;99.90
41080;DHT22;26826;50.718;7.114;2023-02-28T06:33:35;-1.50;99.90
41080;DHT22;26826;50.718;7.114;2023-02-28T06:43:39;-1.50;99.90
41080;DHT22;26826;50.718;7.114;2023-02-28T06:53:40;-1.50;99.90
41080;DHT22;26826;50.718;7.114;2023-02-28T07:03:41;-1.40;99.90
41080;DHT22;26826;50.718;7.114;2023-02-28T07:13:42;-1.20;99.90
41080;DHT22;26826;50.718;7.114;2023-02-28T07:23:42;-1.00;99.90
41080;DHT22;26826;50.718;7.114;2023-02-28T07:33:43;-0.90;99.90
41080;DHT22;26826;50.718;7.114;2023-02-28T07:43:44;-0.80;99.90
41080;DHT22;26826;50.718;7.114;2023-02-28T07:53:44;-0.40;99.90
41080;DHT22;26826;50.718;7.114;2023-02-28T08:03:45;0.40;99.90
41080;DHT22;26826;50.718;7.114;2023-02-28T08:13:46;1.90;99.90
41080;DHT22;26826;50.718;7.114;2023-02-28T08:23:48;4.10;99.90
41080;DHT22;26826;50.718;7.114;2023-02-28T08:33:49;5.20;99.70
41080;DHT22;26826;50.718;7.114;2023-02-28T08:43:52;5.10;99.90
41080;DHT22;26826;50.718;7.114;2023-02-28T08:53:55;4.90;98.90
41080;DHT22;26826;50.718;7.114;2023-02-28T09:03:58;5.10;98.30
41080;DHT22;26826;50.718;7.114;2023-02-28T09:13:58;5.20;96.80
41080;DHT22;26826;50.718;7.114;2023-02-28T09:24:00;5.90;95.80
41080;DHT22;26826;50.718;7.114;2023-02-28T09:34:01;5.50;95.50
41080;DHT22;26826;50.718;7.114;2023-02-28T09:44:04;5.70;95.30
41080;DHT22;26826;50.718;7.114;2023-02-28T09:54:05;5.70;96.00
41080;DHT22;26826;50.718;7.114;2023-02-28T10:14:35;6.80;92.20
41080;DHT22;26826;50.718;7.114;2023-02-28T10:24:42;6.80;91.50
41080;DHT22;26826;50.718;7.114;2023-02-28T10:34:43;7.20;91.90
41080;DHT22;26826;50.718;7.114;2023-02-28T10:44:43;7.00;90.80
41080;DHT22;26826;50.718;7.114;2023-02-28T10:54:44;6.90;91.00
41080;DHT22;26826;50.718;7.114;2023-02-28T11:04:44;7.90;90.10
41080;DHT22;26826;50.718;7.114;2023-02-28T11:14:54;7.80;89.00
41080;DHT22;26826;50.718;7.114;2023-02-28T11:24:59;6.90;88.20
41080;DHT22;26826;50.718;7.114;2023-02-28T11:35:04;9.00;87.90
41080;DHT22;26826;50.718;7.114;2023-02-28T11:45:40;9.80;83.00
41080;DHT22;26826;50.718;7.114;2023-02-28T11:55:51;8.80;82.30
41080;DHT22;26826;50.718;7.114;2023-02-28T12:17:22;10.70;83.40
41080;DHT22;26826;50.718;7.114;2023-02-28T12:26:53;9.90;81.70
41080;DHT22;26826;50.718;7.114;2023-02-28T12:36:56;8.60;82.30
41080;DHT22;26826;50.718;7.114;2023-02-28T12:47:11;11.20;79.80
41080;DHT22;26826;50.718;7.114;2023-02-28T12:57:25;10.90;78.80
41080;DHT22;26826;50.718;7.114;2023-02-28T13:18:35;11.10;80.10
41080;DHT22;26826;50.718;7.114;2023-02-28T13:39:03;13.50;75.90
41080;DHT22;26826;50.718;7.114;2023-02-28T13:59:33;12.40;75.00
41080;DHT22;26826;50.718;7.114;2023-02-28T14:09:38;11.70;76.80
41080;DHT22;26826;50.718;7.114;2023-02-28T14:19:44;10.90;76.10
41080;DHT22;26826;50.718;7.114;2023-02-28T14:30:14;11.70;76.80
41080;DHT22;26826;50.718;7.114;2023-02-28T14:40:21;10.80;77.40
41080;DHT22;26826;50.718;7.114;2023-02-28T14:50:34;11.20;77.20
41080;DHT22;26826;50.718;7.114;2023-02-28T15:00:39;10.60;78.80
41080;DHT22;26826;50.718;7.114;2023-02-28T15:21:05;10.40;78.80
41080;DHT22;26826;50.718;7.114;2023-02-28T15:31:20;9.30;78.10
41080;DHT22;26826;50.718;7.114;2023-02-28T15:41:27;9.60;79.60
41080;DHT22;26826;50.718;7.114;2023-02-28T15:51:36;9.30;79.70
41080;DHT22;26826;50.718;7.114;2023-02-28T16:01:38;8.50;80.80
41080;DHT22;26826;50.718;7.114;2023-02-28T16:11:48;8.90;80.40
41080;DHT22;26826;50.718;7.114;2023-02-28T16:21:50;8.30;83.20
41080;DHT22;26826;50.718;7.114;2023-02-28T16:31:51;8.40;83.10
41080;DHT22;26826;50.718;7.114;2023-02-28T16:41:52;8.30;82.00
41080;DHT22;26826;50.718;7.114;2023-02-28T16:51:53;7.90;83.90
41080;DHT22;26826;50.718;7.114;2023-02-28T17:01:54;7.50;84.00
41080;DHT22;26826;50.718;7.114;2023-02-28T17:11:57;7.10;85.50
41080;DHT22;26826;50.718;7.114;2023-02-28T17:21:59;6.50;86.60
41080;DHT22;26826;50.718;7.114;2023-02-28T17:32:00;6.20;88.70
41080;DHT22;26826;50.718;7.114;2023-02-28T17:42:01;5.80;89.90
41080;DHT22;26826;50.718;7.114;2023-02-28T17:52:01;5.50;90.30
41080;DHT22;26826;50.718;7.114;2023-02-28T18:02:03;5.30;90.70
41080;DHT22;26826;50.718;7.114;2023-02-28T18:12:04;5.00;91.70
41080;DHT22;26826;50.718;7.114;2023-02-28T18:22:04;4.80;91.80
41080;DHT22;26826;50.718;7.114;2023-02-28T18:32:08;4.40;93.10
41080;DHT22;26826;50.718;7.114;2023-02-28T18:42:10;4.20;92.80
41080;DHT22;26826;50.718;7.114;2023-02-28T18:52:10;3.90;94.10
41080;DHT22;26826;50.718;7.114;2023-02-28T19:02:11;3.70;94.80
41080;DHT22;26826;50.718;7.114;2023-02-28T19:12:11;3.50;94.10
41080;DHT22;26826;50.718;7.114;2023-02-28T19:22:12;3.30;95.50
41080;DHT22;26826;50.718;7.114;2023-02-28T19:32:13;3.00;96.10
41080;DHT22;26826;50.718;7.114;2023-02-28T19:42:15;2.70;97.50
41080;DHT22;26826;50.718;7.114;2023-02-28T19:52:16;2.60;96.90
41080;DHT22;26826;50.718;7.114;2023-02-28T20:02:18;2.50;98.00
41080;DHT22;26826;50.718;7.114;2023-02-28T20:12:19;2.20;99.20
41080;DHT22;26826;50.718;7.114;2023-02-28T20:22:22;1.90;99.90
41080;DHT22;26826;50.718;7.114;2023-02-28T20:32:22;1.70;99.90
41080;DHT22;26826;50.718;7.114;2023-02-28T20:42:23;1.60;99.90
41080;DHT22;26826;50.718;7.114;2023-02-28T20:52:24;1.40;99.90
41080;DHT22;26826;50.718;7.114;2023-02-28T21:02:24;1.20;99.90
41080;DHT22;26826;50.718;7.114;2023-02-28T21:12:25;1.40;99.90
41080;DHT22;26826;50.718;7.114;2023-02-28T21:22:26;1.10;99.90
41080;DHT22;26826;50.718;7.114;2023-02-28T21:32:27;0.80;99.90
41080;DHT22;26826;50.718;7.114;2023-02-28T21:42:27;0.70;99.90
41080;DHT22;26826;50.718;7.114;2023-02-28T21:52:28;0.50;99.90
41080;DHT22;26826;50.718;7.114;2023-02-28T22:02:28;0.40;99.90
41080;DHT22;26826;50.718;7.114;2023-02-28T22:12:29;0.30;99.90
41080;DHT22;26826;50.718;7.114;2023-02-28T22:22:30;0.10;99.90
41080;DHT22;26826;50.718;7.114;2023-02-28T22:32:30;0.10;99.90
41080;DHT22;26826;50.718;7.114;2023-02-28T22:42:32;0.10;99.90
41080;DHT22;26826;50.718;7.114;2023-02-28T22:52:33;-0.10;99.90
41080;DHT22;26826;50.718;7.114;2023-02-28T23:02:34;0.00;99.90
41080;DHT22;26826;50.718;7.114;2023-02-28T23:12:35;0.10;99.90
41080;DHT22;26826;50.718;7.114;2023-02-28T23:22:35;-0.10;99.90
41080;DHT22;26826;50.718;7.114;2023-02-28T23:32:37;-0.30;99.90
41080;DHT22;26826;50.718;7.114;2023-02-28T23:42:38;-0.40;99.90
41080;DHT22;26826;50.718;7.114;2023-02-28T23:52:38;-0.50;99.90
